createdAt,value
2018-09-16T00:00:30.488Z,13.60
2018-09-16T00:03:05.472Z,13.60
2018-09-16T00:05:40.076Z,13.50
2018-09-16T00:08:14.537Z,13.50
2018-09-16T00:10:49.257Z,13.50
2018-09-16T00:13:23.996Z,13.40
2018-09-16T00:15:59.152Z,13.40
2018-09-16T00:18:34.086Z,13.40
2018-09-16T00:21:09.280Z,13.40
2018-09-16T00:23:43.822Z,13.40
2018-09-16T00:26:18.641Z,13.30
2018-09-16T00:28:53.364Z,13.30
2018-09-16T00:31:28.056Z,13.30
2018-09-16T00:34:02.701Z,13.30
2018-09-16T00:36:37.357Z,13.30
2018-09-16T00:39:12.008Z,13.30
2018-09-16T00:41:47.800Z,13.30
2018-09-16T00:44:22.568Z,13.30
2018-09-16T00:46:57.706Z,13.20
2018-09-16T00:49:31.868Z,13.20
2018-09-16T00:52:06.568Z,13.20
2018-09-16T00:54:41.275Z,13.20
2018-09-16T00:57:15.996Z,13.10
2018-09-16T00:59:50.704Z,13.10
2018-09-16T01:02:25.584Z,13.10
2018-09-16T01:04:59.956Z,13.10
2018-09-16T01:07:34.507Z,13.10
2018-09-16T01:10:09.568Z,13.00
2018-09-16T01:12:43.836Z,13.00
2018-09-16T01:15:18.528Z,13.00
2018-09-16T01:17:53.141Z,13.00
2018-09-16T01:20:28.329Z,12.90
2018-09-16T01:23:02.494Z,12.90
2018-09-16T01:25:37.449Z,12.90
2018-09-16T01:28:12.238Z,12.90
2018-09-16T01:30:47.028Z,12.80
2018-09-16T01:33:21.696Z,12.80
2018-09-16T01:35:56.068Z,12.80
2018-09-16T01:38:36.493Z,12.80
2018-09-16T01:41:11.464Z,12.80
2018-09-16T01:43:46.242Z,12.70
2018-09-16T01:46:20.990Z,12.70
2018-09-16T01:48:55.545Z,12.70
2018-09-16T01:51:30.204Z,12.70
2018-09-16T01:54:04.877Z,12.70
2018-09-16T01:56:39.460Z,12.70
2018-09-16T01:59:14.192Z,12.70
2018-09-16T02:01:48.776Z,12.70
2018-09-16T02:04:23.496Z,12.70
2018-09-16T02:06:58.332Z,12.70
2018-09-16T02:09:32.896Z,12.60
2018-09-16T02:12:08.049Z,12.60
2018-09-16T02:14:42.241Z,12.60
2018-09-16T02:17:17.137Z,12.60
2018-09-16T02:19:52.037Z,12.50
2018-09-16T02:22:26.888Z,12.50
2018-09-16T02:25:01.978Z,12.50
2018-09-16T02:27:36.403Z,12.50
2018-09-16T02:30:11.036Z,12.50
2018-09-16T02:32:45.489Z,12.50
2018-09-16T02:35:20.201Z,12.40
2018-09-16T02:37:54.989Z,12.40
2018-09-16T02:40:30.180Z,12.40
2018-09-16T02:43:05.163Z,12.40
2018-09-16T02:45:39.771Z,12.40
2018-09-16T02:48:14.422Z,12.40
2018-09-16T02:50:50.449Z,12.40
2018-09-16T02:53:24.888Z,12.40
2018-09-16T02:55:59.875Z,12.40
2018-09-16T02:58:34.362Z,12.40
2018-09-16T03:01:08.905Z,12.40
2018-09-16T03:03:43.483Z,12.30
2018-09-16T03:06:22.972Z,12.40
2018-09-16T03:08:59.271Z,12.30
2018-09-16T03:11:34.391Z,12.30
2018-09-16T03:14:08.524Z,12.30
2018-09-16T03:16:44.230Z,12.30
2018-09-16T03:19:19.093Z,12.30
2018-09-16T03:21:53.676Z,12.30
2018-09-16T03:24:28.351Z,12.20
2018-09-16T03:27:02.880Z,12.20
2018-09-16T03:29:38.233Z,12.20
2018-09-16T03:32:13.373Z,12.20
2018-09-16T03:34:48.128Z,12.20
2018-09-16T03:37:23.425Z,12.10
2018-09-16T03:39:57.585Z,12.10
2018-09-16T03:42:32.391Z,12.10
2018-09-16T03:45:08.372Z,12.10
2018-09-16T03:47:42.957Z,12.10
2018-09-16T03:50:17.641Z,12.10
2018-09-16T03:52:52.537Z,12.10
2018-09-16T03:55:27.377Z,12.00
2018-09-16T03:58:01.733Z,12.00
2018-09-16T04:00:36.362Z,12.00
2018-09-16T04:03:11.240Z,12.00
2018-09-16T04:05:45.651Z,12.00
2018-09-16T04:08:20.984Z,11.90
2018-09-16T04:10:55.963Z,11.90
2018-09-16T04:13:31.120Z,11.90
2018-09-16T04:16:06.017Z,11.90
2018-09-16T04:18:40.810Z,11.90
2018-09-16T04:21:15.387Z,11.90
2018-09-16T04:23:50.158Z,11.90
2018-09-16T04:26:25.616Z,11.90
2018-09-16T04:29:00.980Z,11.80
2018-09-16T04:31:35.230Z,11.80
2018-09-16T04:34:09.796Z,11.80
2018-09-16T04:36:44.504Z,11.80
2018-09-16T04:39:19.637Z,11.80
2018-09-16T04:41:54.132Z,11.80
2018-09-16T04:44:28.799Z,11.80
2018-09-16T04:47:03.108Z,11.80
2018-09-16T04:49:39.202Z,11.70
2018-09-16T04:52:13.834Z,11.70
2018-09-16T04:54:48.816Z,11.70
2018-09-16T04:57:24.047Z,11.70
2018-09-16T04:59:58.619Z,11.70
2018-09-16T05:02:33.296Z,11.70
2018-09-16T05:05:08.273Z,11.70
2018-09-16T05:07:43.532Z,11.70
2018-09-16T05:10:18.871Z,11.70
2018-09-16T05:12:53.456Z,11.70
2018-09-16T05:15:27.905Z,11.70
2018-09-16T05:18:02.520Z,11.70
2018-09-16T05:20:37.278Z,11.70
2018-09-16T05:23:12.467Z,11.80
2018-09-16T05:25:47.995Z,11.70
2018-09-16T05:28:23.155Z,11.80
2018-09-16T05:30:57.597Z,11.90
2018-09-16T05:33:32.279Z,11.90
2018-09-16T05:36:07.175Z,12.00
2018-09-16T05:38:41.478Z,12.00
2018-09-16T05:41:16.084Z,12.10
2018-09-16T05:43:51.000Z,12.10
2018-09-16T05:46:27.420Z,12.20
2018-09-16T05:49:02.500Z,12.30
2018-09-16T05:51:37.044Z,12.30
2018-09-16T05:54:11.943Z,12.40
2018-09-16T05:56:46.657Z,12.50
2018-09-16T05:59:21.414Z,12.70
2018-09-16T06:01:55.904Z,12.80
2018-09-16T06:04:31.589Z,12.90
2018-09-16T06:07:07.413Z,13.10
2018-09-16T06:09:42.208Z,13.20
2018-09-16T06:12:16.836Z,13.40
2018-09-16T06:14:51.197Z,13.50
2018-09-16T06:17:25.804Z,13.80
2018-09-16T06:20:00.621Z,14.10
2018-09-16T06:22:35.459Z,14.50
2018-09-16T06:25:11.542Z,14.90
2018-09-16T06:27:46.397Z,15.30
2018-09-16T06:30:20.842Z,15.80
2018-09-16T06:32:55.544Z,16.20
2018-09-16T06:35:29.985Z,16.50
2018-09-16T06:38:04.589Z,16.90
2018-09-16T06:40:39.177Z,17.20
2018-09-16T06:43:13.797Z,17.40
2018-09-16T06:45:48.586Z,17.60
2018-09-16T06:48:23.267Z,17.70
2018-09-16T06:50:57.564Z,17.90
2018-09-16T06:53:32.055Z,18.00
2018-09-16T06:56:06.893Z,18.20
2018-09-16T06:58:41.672Z,18.40
2018-09-16T07:01:16.137Z,18.40
2018-09-16T07:03:50.809Z,18.30
2018-09-16T07:06:25.675Z,18.30
2018-09-16T07:09:01.179Z,18.30
2018-09-16T07:11:35.952Z,18.30
2018-09-16T07:14:10.564Z,18.40
2018-09-16T07:16:45.312Z,18.50
2018-09-16T07:19:20.006Z,18.50
2018-09-16T07:21:54.874Z,18.60
2018-09-16T07:24:29.649Z,18.70
2018-09-16T07:27:04.462Z,18.90
2018-09-16T07:29:39.093Z,19.00
2018-09-16T07:32:13.808Z,19.10
2018-09-16T07:34:48.348Z,19.20
2018-09-16T07:37:23.269Z,19.40
2018-09-16T07:39:57.851Z,19.50
2018-09-16T07:42:32.508Z,19.60
2018-09-16T07:45:07.376Z,19.70
2018-09-16T07:47:41.802Z,19.80
2018-09-16T07:50:17.271Z,20.00
2018-09-16T07:52:53.673Z,20.00
2018-09-16T07:55:28.353Z,20.20
2018-09-16T07:58:02.685Z,20.30
2018-09-16T08:00:37.240Z,20.30
2018-09-16T08:03:12.156Z,20.30
2018-09-16T08:05:46.722Z,20.30
2018-09-16T08:08:21.356Z,20.30
2018-09-16T08:10:55.997Z,20.40
2018-09-16T08:13:30.688Z,20.40
2018-09-16T08:16:06.674Z,20.50
2018-09-16T08:18:41.264Z,20.60
2018-09-16T08:21:15.803Z,20.70
2018-09-16T08:23:50.997Z,20.80
2018-09-16T08:26:25.185Z,21.00
2018-09-16T08:28:59.927Z,21.10
2018-09-16T08:31:34.880Z,21.20
2018-09-16T08:34:09.047Z,21.40
2018-09-16T08:36:44.136Z,21.50
2018-09-16T08:39:18.452Z,21.40
2018-09-16T08:41:53.133Z,21.40
2018-09-16T08:44:27.784Z,21.60
2018-09-16T08:47:02.467Z,21.60
2018-09-16T08:49:37.091Z,21.70
2018-09-16T08:52:11.844Z,21.80
2018-09-16T08:54:46.266Z,21.90
2018-09-16T08:57:20.813Z,22.10
2018-09-16T08:59:55.803Z,22.20
2018-09-16T09:02:33.314Z,22.30
2018-09-16T09:05:08.162Z,22.30
2018-09-16T09:07:43.477Z,22.30
2018-09-16T09:10:18.821Z,22.40
2018-09-16T09:12:53.872Z,22.40
2018-09-16T09:15:28.721Z,22.40
2018-09-16T09:18:03.315Z,22.40
2018-09-16T09:20:37.962Z,22.60
2018-09-16T09:23:12.441Z,22.70
2018-09-16T09:25:47.588Z,22.70
2018-09-16T09:28:22.825Z,22.80
2018-09-16T09:30:57.985Z,22.90
2018-09-16T09:33:32.436Z,23.00
2018-09-16T09:36:07.344Z,23.20
2018-09-16T09:38:42.074Z,23.30
2018-09-16T09:41:17.100Z,23.50
2018-09-16T09:43:51.337Z,23.60
2018-09-16T09:46:26.012Z,23.60
2018-09-16T09:49:01.788Z,24.00
2018-09-16T09:51:36.482Z,24.10
2018-09-16T09:54:11.316Z,24.10
2018-09-16T09:56:45.988Z,24.10
2018-09-16T09:59:21.004Z,24.30
2018-09-16T10:01:56.051Z,24.40
2018-09-16T10:04:31.280Z,24.30
2018-09-16T10:07:05.923Z,24.30
2018-09-16T10:09:40.420Z,24.30
2018-09-16T10:12:14.858Z,24.50
2018-09-16T10:14:50.113Z,24.70
2018-09-16T10:17:24.876Z,24.80
2018-09-16T10:19:59.523Z,24.70
2018-09-16T10:22:34.138Z,24.70
2018-09-16T10:25:09.828Z,24.70
2018-09-16T10:27:44.476Z,24.60
2018-09-16T10:30:19.616Z,24.50
2018-09-16T10:32:53.835Z,24.30
2018-09-16T10:35:28.494Z,24.30
2018-09-16T10:38:03.703Z,24.20
2018-09-16T10:40:38.270Z,24.20
2018-09-16T10:43:12.620Z,24.10
2018-09-16T10:45:47.176Z,24.00
2018-09-16T10:48:22.112Z,23.90
2018-09-16T10:50:56.424Z,23.90
2018-09-16T10:53:31.452Z,23.90
2018-09-16T10:56:06.066Z,23.90
2018-09-16T10:58:40.537Z,23.80
2018-09-16T11:01:15.356Z,23.70
2018-09-16T11:03:50.036Z,23.70
2018-09-16T11:06:24.836Z,23.60
2018-09-16T11:08:59.360Z,23.50
2018-09-16T11:11:34.084Z,23.40
2018-09-16T11:14:10.196Z,23.50
2018-09-16T11:16:44.824Z,23.40
2018-09-16T11:19:19.615Z,23.40
2018-09-16T11:21:54.455Z,23.40
2018-09-16T11:24:28.553Z,23.30
2018-09-16T11:27:04.124Z,23.30
2018-09-16T11:29:38.969Z,23.20
2018-09-16T11:32:13.524Z,23.20
2018-09-16T11:34:48.335Z,23.10
2018-09-16T11:37:23.407Z,23.10
2018-09-16T11:39:58.268Z,23.00
2018-09-16T11:42:32.900Z,23.00
2018-09-16T11:45:07.633Z,22.90
2018-09-16T11:47:42.505Z,22.80
2018-09-16T11:50:17.107Z,22.80
2018-09-16T11:52:51.809Z,22.90
2018-09-16T11:55:26.677Z,22.90
2018-09-16T11:58:01.228Z,22.90
2018-09-16T12:00:36.948Z,22.80
2018-09-16T12:03:13.153Z,22.80
2018-09-16T12:05:47.361Z,22.80
2018-09-16T12:08:21.988Z,22.80
2018-09-16T12:10:56.727Z,22.90
2018-09-16T12:13:31.600Z,22.90
2018-09-16T12:16:06.445Z,22.80
2018-09-16T12:18:41.288Z,22.80
2018-09-16T12:21:15.752Z,22.70
2018-09-16T12:23:50.389Z,22.70
2018-09-16T12:26:25.065Z,22.60
2018-09-16T12:28:59.717Z,22.60
2018-09-16T12:31:34.237Z,22.70
2018-09-16T12:34:08.752Z,22.70
2018-09-16T12:36:43.464Z,22.70
2018-09-16T12:39:17.701Z,22.70
2018-09-16T12:41:52.308Z,22.70
2018-09-16T12:44:26.727Z,22.70
2018-09-16T12:47:01.224Z,22.70
2018-09-16T12:49:35.924Z,22.60
2018-09-16T12:52:10.337Z,22.60
2018-09-16T12:54:45.015Z,22.60
2018-09-16T12:57:19.413Z,22.60
2018-09-16T12:59:54.119Z,22.70
2018-09-16T13:02:28.625Z,22.60
2018-09-16T13:05:03.207Z,22.70
2018-09-16T13:07:37.901Z,22.70
2018-09-16T13:10:12.888Z,22.70
2018-09-16T13:12:47.764Z,22.80
2018-09-16T13:15:22.393Z,22.70
2018-09-16T13:17:57.662Z,22.70
2018-09-16T13:20:31.704Z,22.80
2018-09-16T13:23:06.472Z,22.80
2018-09-16T13:25:41.279Z,22.70
2018-09-16T13:28:15.964Z,22.80
2018-09-16T13:30:51.084Z,22.80
2018-09-16T13:33:25.276Z,22.80
2018-09-16T13:35:59.964Z,22.80
2018-09-16T13:38:34.702Z,22.80
2018-09-16T13:41:10.028Z,22.80
2018-09-16T13:43:45.206Z,22.80
2018-09-16T13:46:19.700Z,22.80
2018-09-16T13:48:54.255Z,22.90
2018-09-16T13:51:29.072Z,22.90
2018-09-16T13:54:03.822Z,22.90
2018-09-16T13:56:38.454Z,23.00
2018-09-16T13:59:13.228Z,23.00
2018-09-16T14:01:47.886Z,23.00
2018-09-16T14:04:22.660Z,22.90
2018-09-16T14:06:57.339Z,22.90
2018-09-16T14:09:32.475Z,23.00
2018-09-16T14:12:06.665Z,23.00
2018-09-16T14:14:41.758Z,22.90
2018-09-16T14:17:16.152Z,22.80
2018-09-16T14:19:50.903Z,22.80
2018-09-16T14:22:25.691Z,22.80
2018-09-16T14:25:00.308Z,22.80
2018-09-16T14:27:35.434Z,22.70
2018-09-16T14:30:09.644Z,22.70
2018-09-16T14:32:44.255Z,22.70
2018-09-16T14:35:19.854Z,22.70
2018-09-16T14:37:54.532Z,22.80
2018-09-16T14:40:30.067Z,22.80
2018-09-16T14:43:05.037Z,22.70
2018-09-16T14:45:39.852Z,22.70
2018-09-16T14:48:14.741Z,22.70
2018-09-16T14:50:49.265Z,22.70
2018-09-16T14:53:23.963Z,22.70
2018-09-16T14:55:58.558Z,22.70
2018-09-16T14:58:33.357Z,22.70
2018-09-16T15:01:08.343Z,22.70
2018-09-16T15:03:42.605Z,22.70
2018-09-16T15:06:17.639Z,22.60
2018-09-16T15:08:52.357Z,22.60
2018-09-16T15:11:26.649Z,22.60
2018-09-16T15:14:01.417Z,22.60
2018-09-16T15:16:36.070Z,22.60
2018-09-16T15:19:10.785Z,22.60
2018-09-16T15:21:45.416Z,22.60
2018-09-16T15:24:20.237Z,22.60
2018-09-16T15:26:54.981Z,22.50
2018-09-16T15:29:29.492Z,22.50
2018-09-16T15:32:04.496Z,22.50
2018-09-16T15:34:39.281Z,22.50
2018-09-16T15:37:13.820Z,22.50
2018-09-16T15:39:48.343Z,22.50
2018-09-16T15:42:23.105Z,22.50
2018-09-16T15:44:57.821Z,22.50
2018-09-16T15:47:32.590Z,22.50
2018-09-16T15:50:07.346Z,22.40
2018-09-16T15:52:42.177Z,22.40
2018-09-16T15:55:17.081Z,22.50
2018-09-16T15:57:51.677Z,22.40
2018-09-16T16:00:26.781Z,22.40
2018-09-16T16:03:01.469Z,22.30
2018-09-16T16:05:36.881Z,22.30
2018-09-16T16:08:11.601Z,22.40
2018-09-16T16:10:46.668Z,22.40
2018-09-16T16:13:21.198Z,22.30
2018-09-16T16:15:55.696Z,22.30
2018-09-16T16:18:29.952Z,22.30
2018-09-16T16:21:04.922Z,22.30
2018-09-16T16:23:39.554Z,22.30
2018-09-16T16:26:14.119Z,22.20
2018-09-16T16:28:48.710Z,22.20
2018-09-16T16:31:23.243Z,22.10
2018-09-16T16:33:58.232Z,22.10
2018-09-16T16:36:33.341Z,22.10
2018-09-16T16:39:09.222Z,22.00
2018-09-16T16:41:43.722Z,22.00
2018-09-16T16:44:18.671Z,21.90
2018-09-16T16:46:53.201Z,21.90
2018-09-16T16:49:27.796Z,21.90
2018-09-16T16:52:02.938Z,21.80
2018-09-16T16:54:37.896Z,21.70
2018-09-16T16:57:12.460Z,21.70
2018-09-16T16:59:47.336Z,21.70
2018-09-16T17:02:21.932Z,21.60
2018-09-16T17:04:56.520Z,21.60
2018-09-16T17:07:31.164Z,21.60
2018-09-16T17:10:06.194Z,21.50
2018-09-16T17:12:40.582Z,21.50
2018-09-16T17:15:15.344Z,21.40
2018-09-16T17:17:50.014Z,21.40
2018-09-16T17:20:25.056Z,21.40
2018-09-16T17:22:59.270Z,21.30
2018-09-16T17:25:34.319Z,21.30
2018-09-16T17:28:08.700Z,21.20
2018-09-16T17:30:44.274Z,21.10
2018-09-16T17:33:19.193Z,21.10
2018-09-16T17:35:54.021Z,21.00
2018-09-16T17:38:28.452Z,20.90
2018-09-16T17:41:03.149Z,20.80
2018-09-16T17:43:37.786Z,20.70
2018-09-16T17:46:12.056Z,20.60
2018-09-16T17:48:47.363Z,20.50
2018-09-16T17:51:22.437Z,20.50
2018-09-16T17:53:57.185Z,20.40
2018-09-16T17:56:32.074Z,20.40
2018-09-16T17:59:06.556Z,20.30
2018-09-16T18:01:41.057Z,20.30
2018-09-16T18:04:15.908Z,20.20
2018-09-16T18:06:50.432Z,20.20
2018-09-16T18:09:25.161Z,20.20
2018-09-16T18:12:00.006Z,20.20
2018-09-16T18:14:34.655Z,20.10
2018-09-16T18:17:09.686Z,20.00
2018-09-16T18:19:44.002Z,19.90
2018-09-16T18:22:19.017Z,19.90
2018-09-16T18:24:53.768Z,19.80
2018-09-16T18:27:28.629Z,19.70
2018-09-16T18:30:03.431Z,19.60
2018-09-16T18:32:37.913Z,19.60
2018-09-16T18:35:12.541Z,19.40
2018-09-16T18:37:47.293Z,19.40
2018-09-16T18:40:21.969Z,19.30
2018-09-16T18:42:56.576Z,19.20
2018-09-16T18:45:31.365Z,19.20
2018-09-16T18:48:06.323Z,19.10
2018-09-16T18:50:40.922Z,19.00
2018-09-16T18:53:15.967Z,18.90
2018-09-16T18:55:51.109Z,18.90
2018-09-16T18:58:25.812Z,18.80
2018-09-16T19:01:00.683Z,18.80
2018-09-16T19:03:35.498Z,18.70
2018-09-16T19:06:10.644Z,18.70
2018-09-16T19:08:45.782Z,18.60
2018-09-16T19:11:20.765Z,18.50
2018-09-16T19:13:55.464Z,18.50
2018-09-16T19:16:29.728Z,18.50
2018-09-16T19:19:05.244Z,18.40
2018-09-16T19:21:40.178Z,18.30
2018-09-16T19:24:15.434Z,18.30
2018-09-16T19:26:50.640Z,18.30
2018-09-16T19:29:25.399Z,18.20
2018-09-16T19:32:00.296Z,18.20
2018-09-16T19:34:34.600Z,18.20
2018-09-16T19:37:09.281Z,18.20
2018-09-16T19:39:44.169Z,18.10
2018-09-16T19:42:18.782Z,18.10
2018-09-16T19:44:53.693Z,18.10
2018-09-16T19:47:28.123Z,18.10
2018-09-16T19:50:03.464Z,18.00
2018-09-16T19:52:38.529Z,18.00
2018-09-16T19:55:13.152Z,18.00
2018-09-16T19:57:47.856Z,18.00
2018-09-16T20:00:22.716Z,18.00
2018-09-16T20:02:58.289Z,17.90
2018-09-16T20:05:33.009Z,17.90
2018-09-16T20:08:08.015Z,17.90
2018-09-16T20:10:42.758Z,17.90
2018-09-16T20:13:17.093Z,17.80
2018-09-16T20:15:52.128Z,17.80
2018-09-16T20:18:26.507Z,17.70
2018-09-16T20:21:01.804Z,17.70
2018-09-16T20:23:36.810Z,17.70
2018-09-16T20:26:11.772Z,17.70
2018-09-16T20:28:46.548Z,17.70
2018-09-16T20:31:21.020Z,17.70
2018-09-16T20:33:58.881Z,17.70
2018-09-16T20:36:33.322Z,17.80
2018-09-16T20:39:09.695Z,17.80
2018-09-16T20:41:44.812Z,17.80
2018-09-16T20:44:19.435Z,17.80
2018-09-16T20:46:54.338Z,17.90
2018-09-16T20:49:29.089Z,17.90
2018-09-16T20:52:03.844Z,17.90
2018-09-16T20:54:38.520Z,17.90
2018-09-16T20:57:13.310Z,17.90
2018-09-16T20:59:47.744Z,18.00
2018-09-16T21:02:22.476Z,18.00
2018-09-16T21:04:57.135Z,18.10
2018-09-16T21:07:31.888Z,18.10
2018-09-16T21:10:08.005Z,18.10
2018-09-16T21:12:42.903Z,18.10
2018-09-16T21:15:17.736Z,18.10
2018-09-16T21:17:52.324Z,18.20
2018-09-16T21:20:27.221Z,18.20
2018-09-16T21:23:01.974Z,18.20
2018-09-16T21:25:36.855Z,18.20
2018-09-16T21:28:11.519Z,18.20
2018-09-16T21:30:46.463Z,18.30
2018-09-16T21:33:21.014Z,18.30
2018-09-16T21:35:55.821Z,18.30
2018-09-16T21:38:30.541Z,18.30
2018-09-16T21:41:05.320Z,18.40
2018-09-16T21:43:40.074Z,18.40
2018-09-16T21:46:14.908Z,18.40
2018-09-16T21:48:49.184Z,18.40
2018-09-16T21:51:24.001Z,18.40
2018-09-16T21:53:58.563Z,18.50
2018-09-16T21:56:33.252Z,18.40
2018-09-16T21:59:07.896Z,18.50
2018-09-16T22:01:42.803Z,18.40
2018-09-16T22:04:17.980Z,18.40
2018-09-16T22:06:52.130Z,18.40
2018-09-16T22:09:26.780Z,18.40
2018-09-16T22:12:01.408Z,18.40
2018-09-16T22:14:36.143Z,18.40
2018-09-16T22:17:11.132Z,18.40
2018-09-16T22:19:45.585Z,18.40
2018-09-16T22:22:20.344Z,18.40
2018-09-16T22:24:55.239Z,18.30
2018-09-16T22:27:29.864Z,18.30
2018-09-16T22:30:05.253Z,18.30
2018-09-16T22:32:40.333Z,18.20
2018-09-16T22:35:15.948Z,18.20
2018-09-16T22:37:50.537Z,18.20
2018-09-16T22:40:25.320Z,18.10
2018-09-16T22:43:00.120Z,18.10
2018-09-16T22:45:34.901Z,18.20
2018-09-16T22:48:09.448Z,18.10
2018-09-16T22:50:44.228Z,18.10
2018-09-16T22:53:19.288Z,18.10
2018-09-16T22:55:53.808Z,18.10
2018-09-16T22:58:28.346Z,18.10
2018-09-16T23:01:03.074Z,18.10
2018-09-16T23:03:37.713Z,18.10
2018-09-16T23:06:12.719Z,18.10
2018-09-16T23:08:53.075Z,18.10
2018-09-16T23:11:28.147Z,18.10
2018-09-16T23:14:03.290Z,18.00
2018-09-16T23:16:38.304Z,18.00
2018-09-16T23:19:12.460Z,18.10
2018-09-16T23:21:47.076Z,18.10
2018-09-16T23:24:21.829Z,18.10
2018-09-16T23:26:56.711Z,18.00
2018-09-16T23:29:31.228Z,18.10
2018-09-16T23:32:06.185Z,18.00
2018-09-16T23:34:40.772Z,18.00
2018-09-16T23:37:15.408Z,17.90
2018-09-16T23:39:50.332Z,17.90
2018-09-16T23:42:24.861Z,17.90
2018-09-16T23:44:59.618Z,17.90
2018-09-16T23:47:34.267Z,17.90
2018-09-16T23:50:08.872Z,17.90
2018-09-16T23:52:43.423Z,17.90
2018-09-16T23:55:18.236Z,17.90
2018-09-16T23:57:52.804Z,17.90
